Portada
METAR-TAF:

METAR-TAF

Aeroports :

Utsunomiya, Japó

latitud: 36-31N, longitud: 139-52E, altitud: 102 m

Observació

L'informe es va fer fa 7 hores i 13 minuts, a les 23:13 UTC
Vent 3 kt del Nord
Temperatura 14°C
Humitat 58%
Pressió 1021 hPa
Visibilitat 10 km o més
Escasses núvols a una alçada de 3500 ft
Núvols disperses a una alçada de 24000 ft

METAR: RJTU 262313Z 01003KT 9999 FEW035 SCT240 14/06 Q1021 RMK 1CU035 3CI240 A3016

Hora: 15:26 (06:26 UTC)


TAF: manca

Observacions i pronòstics meteorològics de més de 4000 aeroports (METAR i TAF).

Les estacions disponibles són els punts grocs i vermells al mapa.

Posi el ratolí al punt desitjat per veure el nom de l'estació.

Feu clic per veure les observacions i els pronòstics meteorològics.

Per canviar el mapa: feu clic els botons verds amb una creu de color negre per apropar; al botó verd amb un guió per allunyar la imatge; o en les fletxes verdes per a mapes adjacents.


METAR-TAF: